Time;durP1;ratioP1;P1;durP2;ratioP2;P2;SDS_P1;SDS_P2;PMS_P1;PMS_P2;Temp;Humidity;BMP_temperature;BMP_pressure;BME280_temperature;BME280_humidity;BME280_pressure;Samples;Min_cycle;Max_cycle;Signal;HPM_P1;HPM_P2
2021/08/08 00:00:27;;;;;;;1.20;1.10;;;15.70;98.00;;;;;;5072136;28;20502;-76
2021/08/08 00:02:54;;;;;;;1.20;1.10;;;15.80;98.00;;;;;;5054330;28;20884;-76
2021/08/08 00:05:21;;;;;;;1.50;1.20;;;15.80;98.00;;;;;;5071698;28;20516;-76
2021/08/08 00:07:49;;;;;;;1.20;1.10;;;15.80;98.00;;;;;;5071976;28;20520;-76
2021/08/08 00:10:17;;;;;;;1.20;1.20;;;15.90;98.00;;;;;;5071816;28;20484;-78
2021/08/08 00:12:44;;;;;;;1.20;1.00;;;15.90;98.00;;;;;;5071229;28;20448;-77
2021/08/08 00:15:14;;;;;;;1.30;1.00;;;15.90;98.00;;;;;;5071794;28;20501;-76
2021/08/08 00:17:42;;;;;;;1.20;1.10;;;15.90;98.00;;;;;;5071829;28;20452;-77
2021/08/08 00:20:11;;;;;;;1.50;1.40;;;15.90;98.00;;;;;;5071619;28;20513;-75
2021/08/08 00:22:38;;;;;;;1.30;1.10;;;15.90;98.00;;;;;;5071803;28;20498;-76
2021/08/08 00:25:08;;;;;;;1.20;1.00;;;15.90;98.00;;;;;;5071870;28;20460;-76
2021/08/08 00:27:36;;;;;;;1.20;1.10;;;15.90;98.00;;;;;;5071493;28;20458;-76
2021/08/08 00:30:04;;;;;;;1.20;1.00;;;15.80;98.00;;;;;;5071820;28;20488;-77
2021/08/08 00:32:33;;;;;;;1.47;1.17;;;15.80;98.00;;;;;;5071676;28;20522;-76
2021/08/08 00:35:00;;;;;;;1.20;1.00;;;15.70;98.00;;;;;;5071649;28;20460;-76
2021/08/08 00:37:27;;;;;;;1.20;1.00;;;15.80;98.00;;;;;;5054024;28;20460;-76
2021/08/08 00:39:54;;;;;;;1.40;1.10;;;15.90;98.00;;;;;;5071691;28;21020;-77
2021/08/08 00:42:21;;;;;;;1.20;1.10;;;16.00;98.00;;;;;;5053834;28;20460;-76
2021/08/08 00:44:48;;;;;;;1.20;1.13;;;15.90;98.00;;;;;;5071861;28;20882;-76
2021/08/08 00:47:15;;;;;;;1.20;1.10;;;15.80;98.00;;;;;;5071817;28;20460;-76
2021/08/08 00:49:44;;;;;;;1.30;1.10;;;15.80;98.00;;;;;;5071788;28;20491;-76
2021/08/08 00:52:11;;;;;;;1.20;1.10;;;15.80;98.00;;;;;;5071790;28;20487;-76
2021/08/08 00:54:38;;;;;;;1.30;1.10;;;15.80;98.00;;;;;;5071610;28;20486;-76
2021/08/08 00:57:05;;;;;;;1.40;1.37;;;15.70;98.00;;;;;;5071759;28;20493;-76
2021/08/08 00:59:33;;;;;;;1.20;0.97;;;15.80;98.00;;;;;;5071665;28;20464;-76
2021/08/08 01:02:02;;;;;;;1.20;1.10;;;15.80;98.00;;;;;;5070678;28;20459;-78
2021/08/08 01:04:37;;;;;;;1.30;1.00;;;15.90;98.00;;;;;;5071472;28;21086;-76
2021/08/08 01:07:10;;;;;;;1.40;1.10;;;16.00;98.00;;;;;;5055499;28;20504;-76
2021/08/08 01:09:44;;;;;;;1.20;1.20;;;16.00;98.00;;;;;;5075363;28;20491;-76
2021/08/08 01:12:11;;;;;;;1.40;1.10;;;16.10;98.00;;;;;;5074764;28;20461;-76
2021/08/08 01:14:40;;;;;;;1.60;1.10;;;16.10;98.00;;;;;;5074392;28;20472;-78
2021/08/08 01:17:10;;;;;;;1.50;1.40;;;16.20;98.00;;;;;;5074328;28;20497;-76
2021/08/08 01:19:42;;;;;;;1.20;1.07;;;16.30;98.00;;;;;;5074306;28;20533;-76
2021/08/08 01:22:10;;;;;;;1.40;1.10;;;16.30;98.00;;;;;;5074285;28;20452;-77
2021/08/08 01:24:39;;;;;;;1.30;1.10;;;16.30;98.00;;;;;;5074048;28;20495;-76
2021/08/08 01:27:06;;;;;;;1.20;1.00;;;16.40;98.00;;;;;;5056646;28;20453;-76
2021/08/08 01:29:34;;;;;;;1.20;1.10;;;16.40;98.00;;;;;;5073991;28;20575;-76
2021/08/08 01:32:01;;;;;;;1.20;1.03;;;16.40;98.00;;;;;;5073824;28;20519;-78
2021/08/08 01:34:29;;;;;;;1.97;1.43;;;16.40;98.00;;;;;;5073757;28;20460;-76
2021/08/08 01:36:56;;;;;;;1.20;1.10;;;16.40;98.00;;;;;;5073938;28;20526;-77
2021/08/08 01:39:25;;;;;;;2.50;1.40;;;16.40;98.00;;;;;;5056128;28;20504;-75
2021/08/08 01:41:55;;;;;;;1.20;1.00;;;16.40;98.00;;;;;;5073747;28;20464;-75
2021/08/08 01:44:25;;;;;;;1.30;1.20;;;16.40;98.00;;;;;;5073908;28;20517;-76
2021/08/08 01:46:56;;;;;;;1.20;1.00;;;16.40;98.00;;;;;;5073737;28;20464;-76
2021/08/08 01:49:25;;;;;;;1.33;1.20;;;16.40;98.00;;;;;;5073416;28;20496;-76
2021/08/08 01:51:53;;;;;;;10.33;1.50;;;16.40;98.00;;;;;;5055836;28;20965;-75
2021/08/08 01:54:21;;;;;;;1.20;1.00;;;16.30;98.00;;;;;;5073533;28;20528;-76
2021/08/08 01:56:48;;;;;;;1.20;1.10;;;16.30;98.00;;;;;;5073769;28;21106;-76
2021/08/08 01:59:17;;;;;;;1.20;1.00;;;16.30;98.00;;;;;;5073631;28;20498;-76
2021/08/08 02:01:45;;;;;;;1.20;1.00;;;16.20;98.00;;;;;;5073487;28;20468;-76
2021/08/08 02:04:16;;;;;;;1.20;1.10;;;16.20;98.00;;;;;;5073603;28;20465;-76
2021/08/08 02:06:43;;;;;;;1.20;1.00;;;16.20;98.00;;;;;;5073406;28;20479;-76
2021/08/08 02:09:11;;;;;;;1.30;1.10;;;16.30;98.00;;;;;;5055619;28;20453;-76
2021/08/08 02:11:38;;;;;;;1.20;1.00;;;16.20;98.00;;;;;;5073355;28;20620;-77
2021/08/08 02:14:05;;;;;;;1.30;1.10;;;16.30;98.00;;;;;;5073522;28;20514;-76
2021/08/08 02:16:34;;;;;;;1.20;1.10;;;16.30;98.00;;;;;;5055747;28;20510;-76
2021/08/08 02:19:02;;;;;;;1.40;1.00;;;16.30;98.00;;;;;;5072672;28;20508;-76
2021/08/08 02:21:29;;;;;;;1.20;1.10;;;16.30;98.00;;;;;;5073181;28;20456;-76
2021/08/08 02:23:56;;;;;;;1.20;1.00;;;16.30;98.00;;;;;;5073214;28;20481;-78
2021/08/08 02:26:23;;;;;;;1.30;1.10;;;16.30;98.00;;;;;;5073249;28;20927;-77
2021/08/08 02:28:51;;;;;;;1.43;1.23;;;16.40;98.00;;;;;;5073252;28;20460;-76
2021/08/08 02:31:21;;;;;;;1.20;1.00;;;16.30;98.00;;;;;;5072831;28;21016;-77
2021/08/08 02:33:49;;;;;;;1.70;1.20;;;16.30;98.00;;;;;;5055569;28;20549;-76
2021/08/08 02:36:20;;;;;;;1.20;1.00;;;16.30;98.00;;;;;;5072808;28;20530;-76
2021/08/08 02:38:47;;;;;;;1.20;1.10;;;16.30;98.00;;;;;;5072612;28;20793;-76
2021/08/08 02:41:14;;;;;;;1.20;1.00;;;16.30;98.00;;;;;;5072846;28;21014;-76
2021/08/08 02:43:41;;;;;;;1.20;1.10;;;16.20;98.00;;;;;;5072460;28;20560;-76
2021/08/08 02:46:08;;;;;;;1.20;1.00;;;16.20;98.00;;;;;;5072444;28;20451;-77
2021/08/08 02:48:35;;;;;;;1.20;1.20;;;16.20;98.00;;;;;;5072469;28;20993;-77
2021/08/08 02:51:04;;;;;;;1.20;1.20;;;16.20;98.00;;;;;;5072332;28;21058;-77
2021/08/08 02:53:31;;;;;;;1.20;1.03;;;16.20;98.00;;;;;;5072318;28;20537;-77
2021/08/08 02:55:58;;;;;;;1.20;1.10;;;16.20;98.00;;;;;;5072376;28;20529;-76
2021/08/08 02:58:25;;;;;;;1.20;1.00;;;16.20;98.00;;;;;;5072417;28;20468;-76
2021/08/08 03:00:52;;;;;;;1.20;1.10;;;16.10;98.00;;;;;;5072218;28;20869;-77
2021/08/08 03:03:20;;;;;;;1.20;1.10;;;16.00;98.00;;;;;;5072401;28;20500;-76
2021/08/08 03:05:46;;;;;;;1.20;1.20;;;16.10;98.00;;;;;;5072095;28;20464;-76
2021/08/08 03:08:15;;;;;;;1.20;1.10;;;16.10;98.00;;;;;;5072202;28;20975;-76
2021/08/08 03:10:42;;;;;;;1.20;1.00;;;16.00;98.00;;;;;;5071861;28;21000;-76
2021/08/08 03:13:09;;;;;;;1.20;1.00;;;16.10;98.00;;;;;;5054464;28;20492;-77
2021/08/08 03:15:36;;;;;;;1.30;1.10;;;16.00;98.00;;;;;;5054444;28;20492;-76
2021/08/08 03:18:03;;;;;;;1.20;1.00;;;15.80;98.00;;;;;;5070242;28;21039;-76
2021/08/08 03:20:30;;;;;;;1.20;1.20;;;15.80;98.00;;;;;;5071837;28;20495;-76
2021/08/08 03:22:57;;;;;;;1.70;1.10;;;15.70;98.00;;;;;;5072012;28;20522;-76
2021/08/08 03:25:27;;;;;;;1.20;1.00;;;15.60;98.00;;;;;;5072106;28;20482;-75
2021/08/08 03:27:53;;;;;;;1.80;1.27;;;15.60;98.00;;;;;;5071993;28;20511;-78
2021/08/08 03:30:21;;;;;;;1.20;1.00;;;15.60;98.00;;;;;;5070958;28;20480;-77
2021/08/08 03:32:48;;;;;;;1.20;1.10;;;15.70;98.00;;;;;;5054170;28;20852;-78
2021/08/08 03:35:15;;;;;;;1.20;1.00;;;15.80;98.00;;;;;;5071816;28;20500;-77
2021/08/08 03:37:42;;;;;;;1.20;1.13;;;15.70;98.00;;;;;;5071955;28;20496;-77
2021/08/08 03:40:11;;;;;;;1.20;1.10;;;15.70;98.00;;;;;;5071888;28;20993;-76
2021/08/08 03:42:39;;;;;;;1.20;1.00;;;15.70;98.00;;;;;;5054354;28;20538;-76
2021/08/08 03:45:07;;;;;;;1.20;1.00;;;15.70;98.00;;;;;;5071644;28;20521;-76
2021/08/08 03:47:35;;;;;;;1.87;1.33;;;15.70;98.00;;;;;;5054279;28;20507;-76
2021/08/08 03:50:02;;;;;;;1.20;1.10;;;15.80;98.00;;;;;;5071928;28;20502;-78
2021/08/08 03:52:29;;;;;;;1.20;1.00;;;15.80;98.00;;;;;;5054119;28;20510;-76
2021/08/08 03:54:56;;;;;;;1.20;1.00;;;15.80;98.00;;;;;;5071768;28;20499;-77
2021/08/08 03:57:23;;;;;;;1.20;1.00;;;15.80;98.00;;;;;;5071585;28;20532;-76
2021/08/08 03:59:51;;;;;;;1.30;1.17;;;15.80;98.00;;;;;;5071451;28;20518;-77
2021/08/08 04:02:28;;;;;;;1.50;1.13;;;15.80;98.00;;;;;;5071617;28;20517;-77
2021/08/08 04:04:55;;;;;;;1.70;1.13;;;15.70;98.00;;;;;;5053631;28;20515;-76
2021/08/08 04:07:22;;;;;;;1.50;1.20;;;15.70;98.00;;;;;;5071389;28;20874;-77
2021/08/08 04:09:49;;;;;;;1.20;1.00;;;15.60;98.00;;;;;;5071334;28;20452;-76
2021/08/08 04:12:16;;;;;;;1.20;1.00;;;15.50;98.00;;;;;;5071429;28;20524;-77
2021/08/08 04:14:43;;;;;;;1.20;1.10;;;15.40;98.00;;;;;;5071173;28;20463;-76
2021/08/08 04:17:14;;;;;;;1.20;1.00;;;15.30;98.00;;;;;;5053708;28;20511;-76
2021/08/08 04:19:41;;;;;;;1.20;1.00;;;15.50;98.00;;;;;;5071147;28;20552;-76
2021/08/08 04:22:08;;;;;;;1.30;1.10;;;15.50;98.00;;;;;;5071338;28;20486;-76
2021/08/08 04:24:35;;;;;;;1.20;1.00;;;15.60;98.00;;;;;;5053511;28;20487;-77
2021/08/08 04:27:02;;;;;;;1.20;1.00;;;15.60;98.00;;;;;;5071286;28;20489;-78
2021/08/08 04:29:29;;;;;;;1.20;1.00;;;15.60;98.00;;;;;;5071326;28;20465;-76
2021/08/08 04:31:57;;;;;;;1.20;1.17;;;15.40;98.00;;;;;;5071070;28;20499;-76
2021/08/08 04:34:25;;;;;;;1.20;1.10;;;15.50;98.00;;;;;;5071237;28;21002;-76
2021/08/08 04:36:52;;;;;;;1.20;1.10;;;15.50;98.00;;;;;;5071355;28;20470;-76
2021/08/08 04:39:19;;;;;;;1.20;1.00;;;15.50;98.00;;;;;;5071177;28;20953;-76
2021/08/08 04:41:46;;;;;;;1.63;1.27;;;15.30;98.00;;;;;;5056130;28;20460;-77
2021/08/08 04:44:13;;;;;;;1.20;1.10;;;15.40;98.00;;;;;;5074996;28;20521;-76
2021/08/08 04:46:40;;;;;;;1.93;1.47;;;15.20;98.00;;;;;;5075050;28;20459;-77
2021/08/08 04:49:07;;;;;;;1.40;1.30;;;15.10;98.00;;;;;;5057284;28;20508;-77
2021/08/08 04:51:35;;;;;;;1.20;1.10;;;15.20;98.00;;;;;;5074879;28;20537;-76
2021/08/08 04:54:02;;;;;;;1.20;1.20;;;15.20;98.00;;;;;;5075155;28;20508;-77
2021/08/08 04:56:29;;;;;;;1.20;1.00;;;15.30;98.00;;;;;;5074195;28;20965;-76
2021/08/08 04:58:57;;;;;;;1.37;1.10;;;15.30;98.00;;;;;;5074164;28;20944;-77
2021/08/08 05:01:24;;;;;;;1.20;1.10;;;15.10;98.00;;;;;;5039631;28;20470;-77
2021/08/08 05:03:51;;;;;;;1.30;1.10;;;15.00;98.00;;;;;;5074419;28;20476;-76
2021/08/08 05:06:18;;;;;;;1.20;1.10;;;15.00;98.00;;;;;;5074671;28;20466;-76
2021/08/08 05:08:46;;;;;;;1.20;1.10;;;15.20;98.00;;;;;;5074667;28;20494;-76
2021/08/08 05:11:16;;;;;;;1.40;1.20;;;15.20;98.00;;;;;;5074694;28;20490;-77
2021/08/08 05:13:44;;;;;;;1.20;1.00;;;15.40;98.00;;;;;;5074866;28;20540;-77
2021/08/08 05:16:12;;;;;;;1.20;1.10;;;15.40;98.00;;;;;;5074600;28;20492;-77
2021/08/08 05:18:39;;;;;;;1.20;1.03;;;15.50;98.00;;;;;;5074188;28;20526;-76
2021/08/08 05:21:06;;;;;;;1.20;1.07;;;15.40;98.00;;;;;;5056605;28;20451;-76
2021/08/08 05:23:33;;;;;;;1.20;1.10;;;15.40;98.00;;;;;;5074260;28;20494;-78
2021/08/08 05:26:02;;;;;;;1.20;1.10;;;15.40;98.00;;;;;;5073965;28;20468;-76
2021/08/08 05:28:29;;;;;;;1.20;1.00;;;15.40;98.00;;;;;;5073974;28;20463;-76
2021/08/08 05:30:58;;;;;;;1.40;1.20;;;15.30;98.00;;;;;;5073720;28;20972;-77
2021/08/08 05:33:25;;;;;;;1.20;1.00;;;15.30;98.00;;;;;;5073926;28;20460;-76
2021/08/08 05:35:52;;;;;;;1.20;1.07;;;15.30;98.00;;;;;;5073898;28;20539;-76
2021/08/08 05:38:19;;;;;;;1.20;1.00;;;15.30;98.00;;;;;;5074051;28;20510;-76
2021/08/08 05:40:46;;;;;;;1.43;1.20;;;15.30;98.00;;;;;;5073988;28;20510;-76
2021/08/08 05:43:15;;;;;;;1.20;1.00;;;15.30;98.00;;;;;;5073804;28;20557;-77
2021/08/08 05:45:47;;;;;;;1.20;1.00;;;15.30;98.00;;;;;;5073826;28;20464;-76
2021/08/08 05:48:14;;;;;;;1.20;1.10;;;15.40;98.00;;;;;;5073944;28;20875;-76
2021/08/08 05:50:41;;;;;;;1.20;1.10;;;15.60;98.00;;;;;;5073753;28;20467;-77
2021/08/08 05:53:09;;;;;;;1.20;1.00;;;15.60;98.00;;;;;;5073212;28;20471;-77
2021/08/08 05:55:41;;;;;;;1.20;1.00;;;15.60;98.00;;;;;;5073715;28;21091;-76
2021/08/08 05:58:08;;;;;;;1.20;1.00;;;15.80;98.00;;;;;;5073923;28;20459;-76
2021/08/08 06:00:37;;;;;;;1.20;1.00;;;15.90;98.00;;;;;;5073406;28;20455;-76
2021/08/08 06:03:08;;;;;;;1.20;1.00;;;15.90;98.00;;;;;;5073720;28;20450;-77
2021/08/08 06:05:36;;;;;;;1.20;1.10;;;16.10;98.00;;;;;;5073452;28;20815;-78
2021/08/08 06:08:03;;;;;;;1.30;1.13;;;16.20;98.00;;;;;;5073469;28;20458;-76
2021/08/08 06:10:30;;;;;;;1.20;1.10;;;16.50;98.00;;;;;;5073293;28;20514;-75
2021/08/08 06:12:57;;;;;;;1.20;1.00;;;16.50;98.00;;;;;;5073326;28;20528;-76
2021/08/08 06:15:24;;;;;;;1.20;1.00;;;16.60;98.00;;;;;;5073483;28;20802;-76
2021/08/08 06:17:53;;;;;;;1.20;1.10;;;16.70;98.00;;;;;;5073546;28;20503;-76
2021/08/08 06:20:20;;;;;;;1.20;1.00;;;16.80;98.00;;;;;;5073567;28;20502;-76
2021/08/08 06:22:47;;;;;;;1.20;1.10;;;16.90;98.00;;;;;;5056192;28;20503;-76
2021/08/08 06:25:14;;;;;;;1.20;1.00;;;16.90;98.00;;;;;;5073146;28;20494;-76
2021/08/08 06:27:41;;;;;;;1.20;1.10;;;17.00;98.00;;;;;;5073247;28;21201;-75
2021/08/08 06:30:09;;;;;;;1.30;1.13;;;17.00;98.00;;;;;;5073330;28;20485;-76
2021/08/08 06:32:37;;;;;;;2.00;1.60;;;17.10;98.00;;;;;;5073463;28;20496;-77
2021/08/08 06:35:07;;;;;;;1.40;1.20;;;17.20;98.00;;;;;;5073060;28;20481;-76
2021/08/08 06:37:34;;;;;;;1.20;1.10;;;17.30;98.00;;;;;;5073145;28;20495;-75
2021/08/08 06:40:01;;;;;;;1.20;1.00;;;17.50;98.00;;;;;;5072866;28;20465;-75
2021/08/08 06:42:28;;;;;;;1.63;1.10;;;17.50;98.00;;;;;;5073254;28;20457;-76
2021/08/08 06:44:55;;;;;;;1.20;1.10;;;17.60;98.00;;;;;;5038683;28;20488;-77
2021/08/08 06:47:22;;;;;;;1.20;1.10;;;17.80;98.00;;;;;;5072775;28;20480;-75
2021/08/08 06:49:49;;;;;;;1.20;1.03;;;17.80;98.00;;;;;;5072657;28;20548;-75
2021/08/08 06:52:21;;;;;;;1.20;1.10;;;17.80;98.00;;;;;;5073150;28;20516;-75
2021/08/08 06:54:48;;;;;;;1.20;1.10;;;17.80;98.00;;;;;;5072688;28;20938;-75
2021/08/08 06:57:30;;;;;;;1.40;1.20;;;17.90;98.00;;;;;;5072426;28;20990;-76
2021/08/08 06:59:57;;;;;;;1.20;1.10;;;17.90;98.00;;;;;;5072300;28;20549;-75
2021/08/08 07:02:27;;;;;;;1.20;1.00;;;18.00;98.00;;;;;;5072462;28;20453;-76
2021/08/08 07:04:56;;;;;;;1.20;1.10;;;18.00;98.00;;;;;;5072382;28;21026;-75
2021/08/08 07:07:24;;;;;;;1.40;1.30;;;18.10;98.00;;;;;;5054548;28;20481;-75
2021/08/08 07:09:51;;;;;;;1.20;1.10;;;18.20;98.00;;;;;;5072303;28;20461;-75
2021/08/08 07:12:18;;;;;;;1.20;1.10;;;18.30;98.00;;;;;;5072348;28;20553;-75
2021/08/08 07:14:45;;;;;;;1.20;1.00;;;18.30;98.00;;;;;;5072081;28;20489;-76
2021/08/08 07:17:13;;;;;;;1.20;1.00;;;18.30;98.00;;;;;;5072246;28;20457;-75
2021/08/08 07:19:42;;;;;;;1.43;1.13;;;18.30;98.00;;;;;;5072209;28;20507;-76
2021/08/08 07:22:09;;;;;;;1.20;1.10;;;18.30;98.00;;;;;;5071003;28;20455;-75
2021/08/08 07:24:37;;;;;;;1.20;1.10;;;18.40;98.00;;;;;;5072125;28;20511;-75
2021/08/08 07:27:05;;;;;;;1.20;1.00;;;18.40;98.00;;;;;;5072646;28;20460;-76
2021/08/08 07:29:32;;;;;;;1.20;1.20;;;18.50;98.00;;;;;;5072609;28;20472;-76
2021/08/08 07:31:59;;;;;;;1.20;1.00;;;18.60;98.00;;;;;;5038593;28;20481;-76
2021/08/08 07:34:27;;;;;;;1.20;1.10;;;18.70;98.00;;;;;;5072184;28;21124;-75
2021/08/08 07:36:56;;;;;;;2.47;1.20;;;18.70;98.00;;;;;;5072258;28;20850;-73
2021/08/08 07:39:26;;;;;;;1.20;1.20;;;18.70;98.00;;;;;;5068993;28;20506;-75
2021/08/08 07:41:54;;;;;;;1.20;1.10;;;18.70;98.00;;;;;;5083033;28;20456;-77
2021/08/08 07:44:24;;;;;;;1.20;1.10;;;18.90;98.00;;;;;;5084800;28;20953;-77
2021/08/08 07:46:52;;;;;;;1.20;1.10;;;19.00;98.00;;;;;;5070494;28;20541;-75
2021/08/08 07:49:19;;;;;;;1.20;1.00;;;19.00;98.00;;;;;;5069976;28;20542;-75
2021/08/08 07:51:46;;;;;;;1.20;1.00;;;19.00;98.00;;;;;;5079460;28;20492;-76
2021/08/08 07:54:14;;;;;;;1.73;1.17;;;19.20;98.00;;;;;;5078184;28;20460;-78
2021/08/08 07:56:41;;;;;;;1.30;1.20;;;19.30;98.00;;;;;;5087677;28;20456;-77
2021/08/08 07:59:10;;;;;;;1.20;1.13;;;19.20;98.00;;;;;;5077650;28;20819;-76
2021/08/08 08:01:38;;;;;;;1.20;1.10;;;19.30;98.00;;;;;;5074950;28;20531;-77
2021/08/08 08:04:05;;;;;;;1.20;1.20;;;19.40;98.00;;;;;;5086866;28;20460;-77
2021/08/08 08:06:32;;;;;;;1.20;1.10;;;19.60;98.00;;;;;;5087937;28;20452;-78
2021/08/08 08:08:59;;;;;;;2.10;1.30;;;19.70;98.00;;;;;;5074126;28;20538;-76
2021/08/08 08:11:26;;;;;;;1.20;1.10;;;19.80;98.00;;;;;;5078195;28;20544;-74
2021/08/08 08:13:53;;;;;;;1.20;1.00;;;19.70;98.00;;;;;;5077010;28;20486;-76
2021/08/08 08:16:22;;;;;;;1.20;1.10;;;19.70;98.00;;;;;;5086124;28;20503;-73
2021/08/08 08:18:49;;;;;;;1.50;1.40;;;19.50;98.00;;;;;;5085682;28;20464;-72
2021/08/08 08:21:16;;;;;;;1.20;1.13;;;19.50;98.00;;;;;;5085189;28;20464;-74
2021/08/08 08:23:43;;;;;;;1.77;1.20;;;19.50;98.00;;;;;;5088953;28;21351;-74
2021/08/08 08:26:10;;;;;;;1.20;1.10;;;19.60;98.00;;;;;;5084817;28;21081;-76
2021/08/08 08:28:37;;;;;;;1.30;1.10;;;19.70;98.00;;;;;;5090461;28;20943;-76
2021/08/08 08:31:04;;;;;;;1.20;1.10;;;19.80;98.00;;;;;;5079844;28;20504;-76
2021/08/08 08:33:32;;;;;;;1.30;1.20;;;20.00;98.00;;;;;;5082192;28;20527;-76
2021/08/08 08:35:59;;;;;;;1.50;1.40;;;20.20;98.00;;;;;;5084612;28;20476;-76
2021/08/08 08:38:26;;;;;;;1.83;1.37;;;20.30;98.00;;;;;;5080582;28;20499;-77
2021/08/08 08:40:54;;;;;;;1.20;1.10;;;20.50;98.00;;;;;;5088863;28;20448;-77
2021/08/08 08:43:24;;;;;;;1.57;1.40;;;20.60;98.00;;;;;;5058798;28;20500;-77
2021/08/08 08:45:52;;;;;;;1.30;1.20;;;20.80;98.00;;;;;;5082514;28;20484;-76
2021/08/08 08:48:20;;;;;;;1.60;1.30;;;20.80;98.00;;;;;;5059678;28;20491;-76
2021/08/08 08:50:53;;;;;;;1.20;1.10;;;21.00;98.00;;;;;;5089747;28;21662;-75
2021/08/08 08:53:23;;;;;;;1.30;1.20;;;20.90;98.00;;;;;;5087532;28;20481;-76
2021/08/08 08:55:50;;;;;;;1.20;1.10;;;20.90;98.00;;;;;;5075789;28;20458;-75
2021/08/08 08:58:18;;;;;;;1.60;1.20;;;21.00;98.00;;;;;;5087908;28;20550;-76
2021/08/08 09:00:45;;;;;;;1.20;1.20;;;20.90;98.00;;;;;;5084959;28;20487;-74
2021/08/08 09:03:12;;;;;;;1.30;1.10;;;21.00;98.00;;;;;;5090010;28;20550;-74
2021/08/08 09:05:39;;;;;;;1.20;1.10;;;20.90;98.00;;;;;;5078619;28;20492;-73
2021/08/08 09:08:08;;;;;;;1.20;1.10;;;21.00;98.00;;;;;;5083891;28;20496;-73
2021/08/08 09:10:36;;;;;;;1.20;1.10;;;21.10;98.00;;;;;;5079272;28;20482;-74
2021/08/08 09:13:05;;;;;;;1.30;1.20;;;21.30;98.00;;;;;;5084782;28;20491;-74
2021/08/08 09:15:36;;;;;;;1.20;1.10;;;21.30;97.60;;;;;;5089913;28;20492;-74
2021/08/08 09:18:17;;;;;;;1.20;1.10;;;21.40;96.30;;;;;;5080014;28;21042;-75
2021/08/08 09:20:45;;;;;;;1.20;1.10;;;21.50;98.00;;;;;;5089070;28;20467;-75
2021/08/08 09:23:14;;;;;;;1.20;1.20;;;21.50;97.40;;;;;;5076840;28;20502;-75
2021/08/08 09:25:50;;;;;;;1.20;1.10;;;21.50;98.00;;;;;;5080759;28;20506;-76
2021/08/08 09:28:17;;;;;;;1.20;1.10;;;21.30;97.50;;;;;;5071021;28;20456;-75
2021/08/08 09:30:44;;;;;;;1.20;1.10;;;21.30;98.00;;;;;;5069769;28;20459;-75
2021/08/08 09:33:12;;;;;;;1.20;1.10;;;21.30;96.90;;;;;;5075889;28;20493;-75
2021/08/08 09:35:41;;;;;;;1.20;1.20;;;21.20;95.60;;;;;;5073117;28;20823;-74
2021/08/08 09:38:10;;;;;;;1.30;1.13;;;21.20;96.40;;;;;;5071659;28;20493;-75
2021/08/08 09:40:40;;;;;;;1.40;1.30;;;21.10;96.70;;;;;;5086751;28;20495;-75
2021/08/08 09:43:08;;;;;;;1.33;1.33;;;20.90;96.10;;;;;;5090173;28;20452;-75
2021/08/08 09:45:39;;;;;;;1.37;1.17;;;20.70;97.10;;;;;;5083970;28;21024;-75
2021/08/08 09:48:10;;;;;;;1.20;1.20;;;20.60;97.60;;;;;;5087730;28;20483;-74
2021/08/08 09:50:38;;;;;;;1.30;1.20;;;20.40;98.00;;;;;;5074767;28;21089;-75
2021/08/08 09:53:07;;;;;;;1.40;1.20;;;20.40;98.00;;;;;;5088548;28;20571;-75
2021/08/08 09:55:37;;;;;;;1.20;1.13;;;20.30;98.00;;;;;;5088459;28;20925;-75
2021/08/08 09:58:06;;;;;;;1.30;1.20;;;20.30;98.00;;;;;;5088094;28;20459;-76
2021/08/08 10:00:34;;;;;;;1.30;1.30;;;20.30;98.00;;;;;;5072890;28;20509;-75
2021/08/08 10:03:02;;;;;;;1.20;1.00;;;20.30;98.00;;;;;;5088471;28;20470;-75
2021/08/08 10:05:30;;;;;;;1.20;1.10;;;20.50;98.00;;;;;;5088595;28;20454;-75
2021/08/08 10:07:57;;;;;;;1.40;1.30;;;20.70;98.00;;;;;;5089117;28;20937;-76
2021/08/08 10:10:25;;;;;;;1.50;1.30;;;20.90;98.00;;;;;;5079327;28;20451;-76
2021/08/08 10:13:36;;;;;;;1.53;1.40;;;21.10;98.00;;;;;;5088271;28;20491;-77
2021/08/08 10:16:09;;;;;;;1.20;1.20;;;21.20;98.00;;;;;;5080814;28;20531;-76
2021/08/08 10:18:39;;;;;;;1.20;1.10;;;21.20;96.50;;;;;;5075929;28;20456;-75
2021/08/08 10:21:07;;;;;;;1.20;1.10;;;21.30;96.00;;;;;;5093604;28;20484;-75
2021/08/08 10:23:36;;;;;;;1.30;1.20;;;21.30;98.00;;;;;;5093363;28;20471;-74
2021/08/08 10:26:04;;;;;;;1.27;1.20;;;21.50;97.00;;;;;;5093497;28;20540;-75
2021/08/08 10:28:33;;;;;;;1.20;1.10;;;21.80;98.00;;;;;;5093654;28;20850;-75
2021/08/08 10:31:01;;;;;;;2.23;1.23;;;21.90;96.00;;;;;;5093080;28;20974;-75
2021/08/08 10:33:28;;;;;;;1.50;1.20;;;22.00;97.60;;;;;;5075373;28;20811;-75
2021/08/08 10:35:56;;;;;;;1.50;1.30;;;22.10;96.30;;;;;;5092974;28;20874;-75
2021/08/08 10:38:23;;;;;;;1.20;1.10;;;22.10;95.50;;;;;;5092718;28;20513;-75
2021/08/08 10:40:50;;;;;;;1.83;1.27;;;22.10;95.60;;;;;;5092995;28;20468;-74
2021/08/08 10:43:25;;;;;;;1.20;1.10;;;21.90;95.30;;;;;;5074851;28;20950;-74
2021/08/08 10:46:04;;;;;;;1.20;1.10;;;21.90;96.70;;;;;;5092894;28;20546;-75
2021/08/08 10:48:35;;;;;;;1.30;1.10;;;22.00;96.90;;;;;;5092570;28;20467;-75
2021/08/08 10:51:04;;;;;;;1.20;1.20;;;22.20;96.70;;;;;;5092686;28;20525;-75
2021/08/08 10:53:32;;;;;;;1.30;1.30;;;22.30;95.00;;;;;;5074936;28;20487;-74
2021/08/08 10:56:08;;;;;;;1.40;1.30;;;22.40;95.30;;;;;;5092846;28;20539;-75
2021/08/08 10:58:36;;;;;;;1.50;1.40;;;22.60;94.60;;;;;;5092664;28;20794;-75
2021/08/08 11:01:16;;;;;;;1.50;1.27;;;22.90;93.70;;;;;;5074594;28;20456;-75
2021/08/08 11:03:51;;;;;;;1.50;1.10;;;23.30;92.60;;;;;;5092549;28;20452;-75
2021/08/08 11:06:21;;;;;;;1.27;1.13;;;23.60;90.80;;;;;;5092413;28;20491;-75
2021/08/08 11:08:52;;;;;;;1.20;1.10;;;23.90;91.80;;;;;;5092566;28;20488;-75
2021/08/08 11:11:23;;;;;;;1.20;1.17;;;24.10;87.30;;;;;;5092201;28;20466;-75
2021/08/08 11:13:50;;;;;;;1.60;1.43;;;24.30;88.80;;;;;;5092299;28;20827;-74
2021/08/08 11:16:19;;;;;;;1.20;1.10;;;24.60;87.30;;;;;;5091945;28;20501;-75
2021/08/08 11:18:55;;;;;;;1.20;1.10;;;24.80;87.50;;;;;;5092535;28;20501;-75
2021/08/08 11:21:26;;;;;;;1.70;1.30;;;24.90;84.10;;;;;;5092252;28;20455;-74
2021/08/08 11:23:57;;;;;;;1.20;1.20;;;24.40;82.80;;;;;;5092248;28;20554;-74
2021/08/08 11:26:27;;;;;;;1.40;1.20;;;24.40;86.20;;;;;;5092276;28;20456;-74
2021/08/08 11:28:58;;;;;;;2.17;1.40;;;24.50;84.20;;;;;;5091986;28;20521;-74
2021/08/08 11:31:29;;;;;;;1.30;1.20;;;24.70;85.30;;;;;;5091881;28;20459;-75
2021/08/08 11:33:57;;;;;;;1.20;1.10;;;25.10;82.30;;;;;;5092157;28;20487;-75
2021/08/08 11:36:33;;;;;;;1.20;1.10;;;25.30;81.40;;;;;;5092147;28;20480;-74
2021/08/08 11:39:02;;;;;;;1.40;1.20;;;24.60;82.60;;;;;;5074518;28;20459;-74
2021/08/08 11:41:30;;;;;;;1.30;1.23;;;24.10;82.00;;;;;;5091858;28;20452;-75
2021/08/08 11:44:09;;;;;;;1.60;1.20;;;24.10;82.40;;;;;;5092309;28;20855;-74
2021/08/08 11:46:41;;;;;;;1.87;1.30;;;23.80;83.90;;;;;;5091824;28;20513;-75
2021/08/08 11:49:15;;;;;;;1.27;1.17;;;23.90;85.10;;;;;;5091805;28;20503;-74
2021/08/08 11:51:43;;;;;;;1.93;1.40;;;24.10;83.20;;;;;;5090575;28;20483;-74
2021/08/08 11:54:12;;;;;;;1.30;1.20;;;24.30;83.50;;;;;;5091187;28;20515;-74
2021/08/08 11:56:39;;;;;;;1.30;1.17;;;24.50;84.40;;;;;;5090996;28;20456;-74
2021/08/08 11:59:06;;;;;;;1.70;1.30;;;24.80;84.20;;;;;;5090988;28;20487;-74
2021/08/08 12:01:33;;;;;;;1.20;1.13;;;25.20;81.10;;;;;;5091423;28;20543;-74
2021/08/08 12:04:09;;;;;;;1.40;1.30;;;25.20;80.40;;;;;;5091042;28;20607;-75
2021/08/08 12:06:36;;;;;;;1.20;1.20;;;25.10;78.50;;;;;;5091421;28;20470;-75
2021/08/08 12:09:04;;;;;;;1.20;1.13;;;24.60;80.50;;;;;;5066559;28;20462;-75
2021/08/08 12:11:48;;;;;;;1.20;1.20;;;24.20;80.40;;;;;;5051285;28;20820;-75
2021/08/08 12:14:15;;;;;;;1.40;1.10;;;23.70;78.60;;;;;;5060925;28;20968;-75
2021/08/08 12:16:42;;;;;;;1.27;1.10;;;23.40;80.30;;;;;;5068432;28;20485;-76
2021/08/08 12:19:11;;;;;;;1.23;1.13;;;23.50;80.80;;;;;;5071345;28;20948;-76
2021/08/08 12:21:39;;;;;;;1.40;1.20;;;23.60;78.40;;;;;;5071223;28;20521;-75
2021/08/08 12:24:09;;;;;;;1.43;1.27;;;23.60;79.90;;;;;;5071201;28;21104;-75
2021/08/08 12:26:38;;;;;;;1.20;1.20;;;23.70;80.20;;;;;;5071109;28;20865;-76
2021/08/08 12:29:07;;;;;;;1.20;1.10;;;23.90;79.50;;;;;;5071402;28;20453;-76
2021/08/08 12:31:36;;;;;;;1.20;1.10;;;24.00;80.70;;;;;;5070937;28;20468;-76
2021/08/08 12:34:03;;;;;;;1.40;1.30;;;24.40;78.60;;;;;;5071222;28;21087;-75
2021/08/08 12:36:39;;;;;;;1.23;1.07;;;24.50;76.90;;;;;;5071275;28;20927;-75
2021/08/08 12:39:07;;;;;;;1.43;1.30;;;24.70;82.20;;;;;;5071239;28;20448;-75
2021/08/08 12:41:38;;;;;;;1.23;1.20;;;24.30;83.50;;;;;;5071299;28;20967;-75
2021/08/08 12:44:06;;;;;;;3.00;1.23;;;23.90;85.90;;;;;;5071264;28;20477;-75
2021/08/08 12:46:36;;;;;;;1.50;1.33;;;23.70;86.00;;;;;;5071390;28;20448;-76
2021/08/08 12:49:06;;;;;;;1.60;1.20;;;23.30;86.10;;;;;;5071192;28;20465;-75
2021/08/08 12:51:33;;;;;;;1.40;1.20;;;23.40;86.30;;;;;;5070779;28;20461;-75
2021/08/08 12:54:02;;;;;;;1.33;1.20;;;23.40;85.80;;;;;;5070979;28;20546;-75